sensor_id;sensor_type;location;lat;lon;timestamp;temperature;humidity
32506;DHT22;18955;51.224;8.482;2023-05-01T00:01:10;9.90;82.80
32506;DHT22;18955;51.224;8.482;2023-05-01T00:03:36;9.80;82.70
32506;DHT22;18955;51.224;8.482;2023-05-01T00:06:03;9.90;82.90
32506;DHT22;18955;51.224;8.482;2023-05-01T00:08:33;9.80;83.00
32506;DHT22;18955;51.224;8.482;2023-05-01T00:11:03;9.70;82.90
32506;DHT22;18955;51.224;8.482;2023-05-01T00:13:30;9.70;83.00
32506;DHT22;18955;51.224;8.482;2023-05-01T00:15:56;9.70;83.00
32506;DHT22;18955;51.224;8.482;2023-05-01T00:18:22;9.70;82.90
32506;DHT22;18955;51.224;8.482;2023-05-01T00:20:49;9.60;83.00
32506;DHT22;18955;51.224;8.482;2023-05-01T00:23:15;9.60;83.00
32506;DHT22;18955;51.224;8.482;2023-05-01T00:25:41;9.60;83.00
32506;DHT22;18955;51.224;8.482;2023-05-01T00:28:07;9.60;83.00
32506;DHT22;18955;51.224;8.482;2023-05-01T00:30:34;9.50;83.00
32506;DHT22;18955;51.224;8.482;2023-05-01T00:33:00;9.40;83.10
32506;DHT22;18955;51.224;8.482;2023-05-01T00:35:27;9.50;83.10
32506;DHT22;18955;51.224;8.482;2023-05-01T00:37:54;9.50;83.10
32506;DHT22;18955;51.224;8.482;2023-05-01T00:40:20;9.40;83.00
32506;DHT22;18955;51.224;8.482;2023-05-01T00:42:48;9.40;83.00
32506;DHT22;18955;51.224;8.482;2023-05-01T00:45:15;9.40;83.00
32506;DHT22;18955;51.224;8.482;2023-05-01T00:47:41;9.30;83.10
32506;DHT22;18955;51.224;8.482;2023-05-01T00:50:08;9.30;83.10
32506;DHT22;18955;51.224;8.482;2023-05-01T00:52:34;9.30;83.20
32506;DHT22;18955;51.224;8.482;2023-05-01T00:55:01;9.20;83.30
32506;DHT22;18955;51.224;8.482;2023-05-01T00:57:27;9.20;83.20
32506;DHT22;18955;51.224;8.482;2023-05-01T00:59:53;9.20;83.30
32506;DHT22;18955;51.224;8.482;2023-05-01T01:02:20;9.10;83.10
32506;DHT22;18955;51.224;8.482;2023-05-01T01:04:46;9.10;83.20
32506;DHT22;18955;51.224;8.482;2023-05-01T01:07:42;9.10;83.30
32506;DHT22;18955;51.224;8.482;2023-05-01T01:10:26;9.10;83.40
32506;DHT22;18955;51.224;8.482;2023-05-01T01:13:03;9.10;83.40
32506;DHT22;18955;51.224;8.482;2023-05-01T01:15:44;9.00;83.40
32506;DHT22;18955;51.224;8.482;2023-05-01T01:34:46;8.80;83.60
32506;DHT22;18955;51.224;8.482;2023-05-01T01:37:21;8.80;83.70
32506;DHT22;18955;51.224;8.482;2023-05-01T01:39:52;8.80;83.70
32506;DHT22;18955;51.224;8.482;2023-05-01T01:42:25;8.80;83.70
32506;DHT22;18955;51.224;8.482;2023-05-01T01:44:55;8.70;83.50
32506;DHT22;18955;51.224;8.482;2023-05-01T01:47:26;8.70;83.60
32506;DHT22;18955;51.224;8.482;2023-05-01T01:49:58;8.70;83.60
32506;DHT22;18955;51.224;8.482;2023-05-01T01:52:26;8.70;83.70
32506;DHT22;18955;51.224;8.482;2023-05-01T01:54:58;8.60;83.60
32506;DHT22;18955;51.224;8.482;2023-05-01T01:57:26;8.60;83.70
32506;DHT22;18955;51.224;8.482;2023-05-01T01:59:53;8.60;83.60
32506;DHT22;18955;51.224;8.482;2023-05-01T02:02:20;8.60;83.70
32506;DHT22;18955;51.224;8.482;2023-05-01T02:04:47;8.60;83.70
32506;DHT22;18955;51.224;8.482;2023-05-01T02:07:16;8.60;83.80
32506;DHT22;18955;51.224;8.482;2023-05-01T02:09:45;8.50;83.70
32506;DHT22;18955;51.224;8.482;2023-05-01T02:12:12;8.40;83.70
32506;DHT22;18955;51.224;8.482;2023-05-01T02:14:40;8.50;83.60
32506;DHT22;18955;51.224;8.482;2023-05-01T02:17:08;8.40;83.70
32506;DHT22;18955;51.224;8.482;2023-05-01T02:19:37;8.40;83.70
32506;DHT22;18955;51.224;8.482;2023-05-01T02:22:07;8.40;83.60
32506;DHT22;18955;51.224;8.482;2023-05-01T02:24:35;8.40;83.70
32506;DHT22;18955;51.224;8.482;2023-05-01T02:27:07;8.40;83.70
32506;DHT22;18955;51.224;8.482;2023-05-01T02:29:36;8.40;83.70
32506;DHT22;18955;51.224;8.482;2023-05-01T02:32:02;8.30;83.60
32506;DHT22;18955;51.224;8.482;2023-05-01T02:34:29;8.30;83.70
32506;DHT22;18955;51.224;8.482;2023-05-01T02:36:56;8.30;83.70
32506;DHT22;18955;51.224;8.482;2023-05-01T02:39:22;8.30;83.70
32506;DHT22;18955;51.224;8.482;2023-05-01T02:41:48;8.30;83.70
32506;DHT22;18955;51.224;8.482;2023-05-01T02:44:18;8.20;83.80
32506;DHT22;18955;51.224;8.482;2023-05-01T02:46:46;8.20;83.80
32506;DHT22;18955;51.224;8.482;2023-05-01T02:49:15;8.20;83.70
32506;DHT22;18955;51.224;8.482;2023-05-01T02:51:45;8.20;83.60
32506;DHT22;18955;51.224;8.482;2023-05-01T02:54:12;8.10;83.70
32506;DHT22;18955;51.224;8.482;2023-05-01T02:56:39;8.20;83.70
32506;DHT22;18955;51.224;8.482;2023-05-01T02:59:05;8.10;84.20
32506;DHT22;18955;51.224;8.482;2023-05-01T03:01:31;8.10;83.70
32506;DHT22;18955;51.224;8.482;2023-05-01T03:03:57;8.10;83.70
32506;DHT22;18955;51.224;8.482;2023-05-01T03:06:23;8.10;83.80
32506;DHT22;18955;51.224;8.482;2023-05-01T03:08:50;8.10;83.80
32506;DHT22;18955;51.224;8.482;2023-05-01T03:11:16;8.00;83.80
32506;DHT22;18955;51.224;8.482;2023-05-01T03:13:42;8.10;83.90
32506;DHT22;18955;51.224;8.482;2023-05-01T03:16:09;8.00;83.80
32506;DHT22;18955;51.224;8.482;2023-05-01T03:18:35;8.00;83.90
32506;DHT22;18955;51.224;8.482;2023-05-01T03:21:01;8.00;83.90
32506;DHT22;18955;51.224;8.482;2023-05-01T03:23:28;8.00;83.90
32506;DHT22;18955;51.224;8.482;2023-05-01T03:25:54;8.00;83.80
32506;DHT22;18955;51.224;8.482;2023-05-01T03:28:21;7.90;83.80
32506;DHT22;18955;51.224;8.482;2023-05-01T03:30:51;7.90;83.80
32506;DHT22;18955;51.224;8.482;2023-05-01T03:33:17;7.90;83.80
32506;DHT22;18955;51.224;8.482;2023-05-01T03:35:44;7.90;83.80
32506;DHT22;18955;51.224;8.482;2023-05-01T03:38:10;7.90;83.80
32506;DHT22;18955;51.224;8.482;2023-05-01T03:40:59;7.90;83.80
32506;DHT22;18955;51.224;8.482;2023-05-01T03:43:44;7.80;83.90
32506;DHT22;18955;51.224;8.482;2023-05-01T03:46:29;7.80;83.80
32506;DHT22;18955;51.224;8.482;2023-05-01T03:48:55;7.80;83.90
32506;DHT22;18955;51.224;8.482;2023-05-01T03:51:22;7.80;83.90
32506;DHT22;18955;51.224;8.482;2023-05-01T03:53:50;7.80;83.80
32506;DHT22;18955;51.224;8.482;2023-05-01T03:56:17;7.80;83.90
32506;DHT22;18955;51.224;8.482;2023-05-01T03:58:44;7.70;83.80
32506;DHT22;18955;51.224;8.482;2023-05-01T04:01:10;7.70;83.90
32506;DHT22;18955;51.224;8.482;2023-05-01T04:03:42;7.70;83.70
32506;DHT22;18955;51.224;8.482;2023-05-01T04:06:08;7.70;83.80
32506;DHT22;18955;51.224;8.482;2023-05-01T04:08:34;7.70;83.80
32506;DHT22;18955;51.224;8.482;2023-05-01T04:11:01;7.70;84.00
32506;DHT22;18955;51.224;8.482;2023-05-01T04:13:27;7.60;84.00
32506;DHT22;18955;51.224;8.482;2023-05-01T04:15:54;7.70;84.10
32506;DHT22;18955;51.224;8.482;2023-05-01T04:18:23;7.60;84.00
32506;DHT22;18955;51.224;8.482;2023-05-01T04:20:50;7.60;84.10
32506;DHT22;18955;51.224;8.482;2023-05-01T04:23:16;7.60;84.10
32506;DHT22;18955;51.224;8.482;2023-05-01T04:25:43;7.60;84.20
32506;DHT22;18955;51.224;8.482;2023-05-01T04:28:12;7.60;84.10
32506;DHT22;18955;51.224;8.482;2023-05-01T04:30:39;7.60;84.30
32506;DHT22;18955;51.224;8.482;2023-05-01T04:33:06;7.50;84.00
32506;DHT22;18955;51.224;8.482;2023-05-01T04:35:38;7.60;84.20
32506;DHT22;18955;51.224;8.482;2023-05-01T04:38:06;7.60;84.20
32506;DHT22;18955;51.224;8.482;2023-05-01T04:40:32;7.50;84.20
32506;DHT22;18955;51.224;8.482;2023-05-01T04:42:59;7.50;84.20
32506;DHT22;18955;51.224;8.482;2023-05-01T04:45:25;7.50;84.20
32506;DHT22;18955;51.224;8.482;2023-05-01T04:47:53;7.50;84.20
32506;DHT22;18955;51.224;8.482;2023-05-01T04:50:19;7.50;84.30
32506;DHT22;18955;51.224;8.482;2023-05-01T04:52:46;7.50;84.30
32506;DHT22;18955;51.224;8.482;2023-05-01T04:55:12;7.50;84.40
32506;DHT22;18955;51.224;8.482;2023-05-01T04:57:56;7.50;84.40
32506;DHT22;18955;51.224;8.482;2023-05-01T05:00:22;7.40;84.30
32506;DHT22;18955;51.224;8.482;2023-05-01T05:02:54;7.50;84.40
32506;DHT22;18955;51.224;8.482;2023-05-01T05:05:20;7.50;84.50
32506;DHT22;18955;51.224;8.482;2023-05-01T05:07:48;7.40;85.00
32506;DHT22;18955;51.224;8.482;2023-05-01T05:10:43;7.40;84.40
32506;DHT22;18955;51.224;8.482;2023-05-01T05:13:21;7.40;84.30
32506;DHT22;18955;51.224;8.482;2023-05-01T05:15:57;7.40;84.50
32506;DHT22;18955;51.224;8.482;2023-05-01T05:18:23;7.40;84.40
32506;DHT22;18955;51.224;8.482;2023-05-01T05:20:50;7.40;84.40
32506;DHT22;18955;51.224;8.482;2023-05-01T05:23:17;7.50;84.60
32506;DHT22;18955;51.224;8.482;2023-05-01T05:25:43;7.40;84.40
32506;DHT22;18955;51.224;8.482;2023-05-01T05:28:10;7.40;84.50
32506;DHT22;18955;51.224;8.482;2023-05-01T05:30:36;7.40;84.50
32506;DHT22;18955;51.224;8.482;2023-05-01T05:33:06;7.40;84.70
32506;DHT22;18955;51.224;8.482;2023-05-01T05:35:34;7.40;84.60
32506;DHT22;18955;51.224;8.482;2023-05-01T05:38:00;7.40;84.60
32506;DHT22;18955;51.224;8.482;2023-05-01T05:40:29;7.40;84.70
32506;DHT22;18955;51.224;8.482;2023-05-01T05:42:59;7.30;84.70
32506;DHT22;18955;51.224;8.482;2023-05-01T05:45:28;7.40;84.70
32506;DHT22;18955;51.224;8.482;2023-05-01T05:47:55;7.40;84.70
32506;DHT22;18955;51.224;8.482;2023-05-01T05:50:22;7.40;84.70
32506;DHT22;18955;51.224;8.482;2023-05-01T05:52:48;7.30;84.60
32506;DHT22;18955;51.224;8.482;2023-05-01T05:55:15;7.40;84.90
32506;DHT22;18955;51.224;8.482;2023-05-01T05:57:49;7.30;84.80
32506;DHT22;18955;51.224;8.482;2023-05-01T06:00:16;7.40;84.80
32506;DHT22;18955;51.224;8.482;2023-05-01T06:02:47;7.30;84.70
32506;DHT22;18955;51.224;8.482;2023-05-01T06:05:14;7.40;84.80
32506;DHT22;18955;51.224;8.482;2023-05-01T06:07:40;7.40;84.80
32506;DHT22;18955;51.224;8.482;2023-05-01T06:10:07;7.40;84.80
32506;DHT22;18955;51.224;8.482;2023-05-01T06:12:33;7.40;84.90
32506;DHT22;18955;51.224;8.482;2023-05-01T06:15:00;7.40;84.90
32506;DHT22;18955;51.224;8.482;2023-05-01T06:17:28;7.30;84.90
32506;DHT22;18955;51.224;8.482;2023-05-01T06:19:55;7.40;85.50
32506;DHT22;18955;51.224;8.482;2023-05-01T06:22:21;7.30;84.80
32506;DHT22;18955;51.224;8.482;2023-05-01T06:25:10;7.40;84.90
32506;DHT22;18955;51.224;8.482;2023-05-01T06:27:37;7.40;85.10
32506;DHT22;18955;51.224;8.482;2023-05-01T06:30:03;7.40;84.90
32506;DHT22;18955;51.224;8.482;2023-05-01T06:32:31;7.30;84.80
32506;DHT22;18955;51.224;8.482;2023-05-01T06:34:57;7.40;84.90
32506;DHT22;18955;51.224;8.482;2023-05-01T06:37:24;7.40;84.90
32506;DHT22;18955;51.224;8.482;2023-05-01T06:39:50;7.40;84.80
32506;DHT22;18955;51.224;8.482;2023-05-01T06:42:16;7.40;84.80
32506;DHT22;18955;51.224;8.482;2023-05-01T06:44:42;7.40;84.80
32506;DHT22;18955;51.224;8.482;2023-05-01T06:47:09;7.50;84.80
32506;DHT22;18955;51.224;8.482;2023-05-01T06:49:35;7.50;84.80
32506;DHT22;18955;51.224;8.482;2023-05-01T06:52:01;7.50;84.70
32506;DHT22;18955;51.224;8.482;2023-05-01T06:54:27;7.50;84.70
32506;DHT22;18955;51.224;8.482;2023-05-01T06:56:54;7.50;84.60
32506;DHT22;18955;51.224;8.482;2023-05-01T06:59:20;7.50;84.60
32506;DHT22;18955;51.224;8.482;2023-05-01T07:01:47;7.50;84.60
32506;DHT22;18955;51.224;8.482;2023-05-01T07:04:13;7.50;84.50
32506;DHT22;18955;51.224;8.482;2023-05-01T07:06:39;7.50;84.60
32506;DHT22;18955;51.224;8.482;2023-05-01T07:09:05;7.50;84.50
32506;DHT22;18955;51.224;8.482;2023-05-01T07:11:32;7.60;84.50
32506;DHT22;18955;51.224;8.482;2023-05-01T07:13:59;7.60;84.40
32506;DHT22;18955;51.224;8.482;2023-05-01T07:16:26;7.60;84.40
32506;DHT22;18955;51.224;8.482;2023-05-01T07:18:52;7.70;84.60
32506;DHT22;18955;51.224;8.482;2023-05-01T07:26:29;8.00;84.20
32506;DHT22;18955;51.224;8.482;2023-05-01T07:28:55;8.10;84.50
32506;DHT22;18955;51.224;8.482;2023-05-01T07:31:21;8.10;84.20
32506;DHT22;18955;51.224;8.482;2023-05-01T07:33:48;8.10;84.00
32506;DHT22;18955;51.224;8.482;2023-05-01T07:36:14;8.10;84.00
32506;DHT22;18955;51.224;8.482;2023-05-01T07:38:43;8.10;84.10
32506;DHT22;18955;51.224;8.482;2023-05-01T07:41:10;8.10;84.20
32506;DHT22;18955;51.224;8.482;2023-05-01T07:43:36;8.10;84.30
32506;DHT22;18955;51.224;8.482;2023-05-01T07:46:02;8.10;84.30
32506;DHT22;18955;51.224;8.482;2023-05-01T07:48:29;8.10;84.30
32506;DHT22;18955;51.224;8.482;2023-05-01T07:51:00;8.20;84.30
32506;DHT22;18955;51.224;8.482;2023-05-01T07:53:26;8.20;84.30
32506;DHT22;18955;51.224;8.482;2023-05-01T07:55:52;8.20;84.30
32506;DHT22;18955;51.224;8.482;2023-05-01T07:58:19;8.20;84.30
32506;DHT22;18955;51.224;8.482;2023-05-01T08:00:45;8.20;84.20
32506;DHT22;18955;51.224;8.482;2023-05-01T08:03:11;8.30;84.20
32506;DHT22;18955;51.224;8.482;2023-05-01T08:05:41;8.30;84.30
32506;DHT22;18955;51.224;8.482;2023-05-01T08:08:08;8.30;84.20
32506;DHT22;18955;51.224;8.482;2023-05-01T08:10:34;8.30;84.20
32506;DHT22;18955;51.224;8.482;2023-05-01T08:13:01;8.30;84.20
32506;DHT22;18955;51.224;8.482;2023-05-01T08:15:27;8.40;84.30
32506;DHT22;18955;51.224;8.482;2023-05-01T08:17:53;8.40;84.30
32506;DHT22;18955;51.224;8.482;2023-05-01T08:20:20;8.40;84.30
32506;DHT22;18955;51.224;8.482;2023-05-01T08:22:46;8.40;84.20
32506;DHT22;18955;51.224;8.482;2023-05-01T08:25:12;8.50;84.20
32506;DHT22;18955;51.224;8.482;2023-05-01T08:27:38;8.50;84.30
32506;DHT22;18955;51.224;8.482;2023-05-01T08:30:05;8.50;84.90
32506;DHT22;18955;51.224;8.482;2023-05-01T08:32:32;8.60;84.30
32506;DHT22;18955;51.224;8.482;2023-05-01T08:34:58;8.60;84.20
32506;DHT22;18955;51.224;8.482;2023-05-01T08:37:24;8.70;84.20
32506;DHT22;18955;51.224;8.482;2023-05-01T08:39:50;8.60;84.20
32506;DHT22;18955;51.224;8.482;2023-05-01T08:42:17;8.70;84.20
32506;DHT22;18955;51.224;8.482;2023-05-01T08:44:45;8.80;84.30
32506;DHT22;18955;51.224;8.482;2023-05-01T08:47:18;8.80;84.40
32506;DHT22;18955;51.224;8.482;2023-05-01T08:49:45;8.80;84.30
32506;DHT22;18955;51.224;8.482;2023-05-01T08:52:14;8.90;84.40
32506;DHT22;18955;51.224;8.482;2023-05-01T08:54:44;8.90;84.50
32506;DHT22;18955;51.224;8.482;2023-05-01T08:57:12;8.90;84.50
32506;DHT22;18955;51.224;8.482;2023-05-01T08:59:39;9.00;84.60
32506;DHT22;18955;51.224;8.482;2023-05-01T09:02:07;9.00;84.60
32506;DHT22;18955;51.224;8.482;2023-05-01T09:04:38;9.00;84.60
32506;DHT22;18955;51.224;8.482;2023-05-01T09:07:04;9.10;84.70
32506;DHT22;18955;51.224;8.482;2023-05-01T09:09:32;9.10;84.70
32506;DHT22;18955;51.224;8.482;2023-05-01T09:14:31;9.20;84.50
32506;DHT22;18955;51.224;8.482;2023-05-01T09:16:58;9.30;84.60
32506;DHT22;18955;51.224;8.482;2023-05-01T09:19:25;9.30;84.60
32506;DHT22;18955;51.224;8.482;2023-05-01T09:21:55;9.30;84.60
32506;DHT22;18955;51.224;8.482;2023-05-01T09:24:24;9.40;84.90
32506;DHT22;18955;51.224;8.482;2023-05-01T09:26:50;9.40;84.80
32506;DHT22;18955;51.224;8.482;2023-05-01T09:29:39;9.40;84.60
32506;DHT22;18955;51.224;8.482;2023-05-01T09:32:19;9.40;84.70
32506;DHT22;18955;51.224;8.482;2023-05-01T09:34:47;9.50;84.90
32506;DHT22;18955;51.224;8.482;2023-05-01T09:40:09;9.50;85.10
32506;DHT22;18955;51.224;8.482;2023-05-01T09:42:37;9.50;85.10
32506;DHT22;18955;51.224;8.482;2023-05-01T09:45:11;9.60;85.30
32506;DHT22;18955;51.224;8.482;2023-05-01T09:47:38;9.60;85.30
32506;DHT22;18955;51.224;8.482;2023-05-01T09:50:04;9.70;85.30
32506;DHT22;18955;51.224;8.482;2023-05-01T09:52:31;9.70;85.30
32506;DHT22;18955;51.224;8.482;2023-05-01T09:55:16;9.70;85.20
32506;DHT22;18955;51.224;8.482;2023-05-01T09:57:44;9.80;85.10
32506;DHT22;18955;51.224;8.482;2023-05-01T10:00:12;9.80;85.20
32506;DHT22;18955;51.224;8.482;2023-05-01T10:02:44;9.90;85.20
32506;DHT22;18955;51.224;8.482;2023-05-01T10:05:12;9.90;85.30
32506;DHT22;18955;51.224;8.482;2023-05-01T10:07:40;9.90;85.30
32506;DHT22;18955;51.224;8.482;2023-05-01T10:10:20;10.00;85.30
32506;DHT22;18955;51.224;8.482;2023-05-01T10:12:47;10.00;85.40
32506;DHT22;18955;51.224;8.482;2023-05-01T10:15:14;10.00;85.40
32506;DHT22;18955;51.224;8.482;2023-05-01T10:17:42;10.10;85.60
32506;DHT22;18955;51.224;8.482;2023-05-01T10:20:10;10.10;85.50
32506;DHT22;18955;51.224;8.482;2023-05-01T10:22:40;10.10;85.70
32506;DHT22;18955;51.224;8.482;2023-05-01T10:25:10;10.20;85.90
32506;DHT22;18955;51.224;8.482;2023-05-01T10:27:38;10.20;85.70
32506;DHT22;18955;51.224;8.482;2023-05-01T10:30:06;10.30;85.80
32506;DHT22;18955;51.224;8.482;2023-05-01T10:32:34;10.30;85.70
32506;DHT22;18955;51.224;8.482;2023-05-01T10:35:07;10.40;85.80
32506;DHT22;18955;51.224;8.482;2023-05-01T10:40:43;10.40;85.70
32506;DHT22;18955;51.224;8.482;2023-05-01T10:43:39;10.40;85.80
32506;DHT22;18955;51.224;8.482;2023-05-01T10:51:13;10.50;86.00
32506;DHT22;18955;51.224;8.482;2023-05-01T10:53:40;10.50;86.20
32506;DHT22;18955;51.224;8.482;2023-05-01T10:59:00;10.60;86.10
32506;DHT22;18955;51.224;8.482;2023-05-01T11:01:39;10.60;86.20
32506;DHT22;18955;51.224;8.482;2023-05-01T11:09:47;10.70;86.20
32506;DHT22;18955;51.224;8.482;2023-05-01T11:12:46;10.70;86.10
32506;DHT22;18955;51.224;8.482;2023-05-01T11:15:02;10.80;86.20
32506;DHT22;18955;51.224;8.482;2023-05-01T11:20:06;10.80;86.20
32506;DHT22;18955;51.224;8.482;2023-05-01T11:22:34;10.90;86.30
32506;DHT22;18955;51.224;8.482;2023-05-01T11:25:01;10.90;86.30
32506;DHT22;18955;51.224;8.482;2023-05-01T11:27:31;10.90;86.40
32506;DHT22;18955;51.224;8.482;2023-05-01T11:29:58;10.90;86.30
32506;DHT22;18955;51.224;8.482;2023-05-01T11:32:26;11.00;86.50
32506;DHT22;18955;51.224;8.482;2023-05-01T11:34:55;11.00;86.30
32506;DHT22;18955;51.224;8.482;2023-05-01T11:40:21;11.10;86.40
32506;DHT22;18955;51.224;8.482;2023-05-01T11:42:48;11.10;86.20
32506;DHT22;18955;51.224;8.482;2023-05-01T11:45:15;11.10;86.30
32506;DHT22;18955;51.224;8.482;2023-05-01T11:47:41;11.20;86.40
32506;DHT22;18955;51.224;8.482;2023-05-01T11:50:08;11.20;86.40
32506;DHT22;18955;51.224;8.482;2023-05-01T11:52:46;11.20;86.30
32506;DHT22;18955;51.224;8.482;2023-05-01T11:55:18;11.20;86.80
32506;DHT22;18955;51.224;8.482;2023-05-01T11:57:50;11.30;86.40
32506;DHT22;18955;51.224;8.482;2023-05-01T12:00:34;11.30;86.40
32506;DHT22;18955;51.224;8.482;2023-05-01T12:03:03;11.30;86.30
32506;DHT22;18955;51.224;8.482;2023-05-01T12:05:32;11.30;86.40
32506;DHT22;18955;51.224;8.482;2023-05-01T12:08:28;11.40;86.40
32506;DHT22;18955;51.224;8.482;2023-05-01T12:10:54;11.40;86.30
32506;DHT22;18955;51.224;8.482;2023-05-01T12:13:21;11.40;86.30
32506;DHT22;18955;51.224;8.482;2023-05-01T12:15:51;11.50;86.30
32506;DHT22;18955;51.224;8.482;2023-05-01T12:18:18;11.50;86.20
32506;DHT22;18955;51.224;8.482;2023-05-01T12:20:51;11.50;86.20
32506;DHT22;18955;51.224;8.482;2023-05-01T12:23:19;11.60;86.20
32506;DHT22;18955;51.224;8.482;2023-05-01T12:25:45;11.60;86.20
32506;DHT22;18955;51.224;8.482;2023-05-01T12:28:13;11.60;86.10
32506;DHT22;18955;51.224;8.482;2023-05-01T12:30:41;11.70;86.00
32506;DHT22;18955;51.224;8.482;2023-05-01T12:35:39;11.80;86.00
32506;DHT22;18955;51.224;8.482;2023-05-01T12:40:47;11.80;85.80
32506;DHT22;18955;51.224;8.482;2023-05-01T12:43:14;11.90;85.60
32506;DHT22;18955;51.224;8.482;2023-05-01T12:45:41;11.90;85.60
32506;DHT22;18955;51.224;8.482;2023-05-01T12:48:11;11.90;85.40
32506;DHT22;18955;51.224;8.482;2023-05-01T12:50:41;12.00;85.40
32506;DHT22;18955;51.224;8.482;2023-05-01T12:53:08;12.00;85.50
32506;DHT22;18955;51.224;8.482;2023-05-01T12:55:42;12.00;85.50
32506;DHT22;18955;51.224;8.482;2023-05-01T12:58:10;12.00;85.50
32506;DHT22;18955;51.224;8.482;2023-05-01T13:00:47;12.00;85.60
32506;DHT22;18955;51.224;8.482;2023-05-01T13:03:14;12.10;85.80
32506;DHT22;18955;51.224;8.482;2023-05-01T13:08:37;12.10;86.40
32506;DHT22;18955;51.224;8.482;2023-05-01T13:11:15;12.10;85.90
32506;DHT22;18955;51.224;8.482;2023-05-01T13:13:43;12.20;86.00
32506;DHT22;18955;51.224;8.482;2023-05-01T13:16:14;12.20;86.20
32506;DHT22;18955;51.224;8.482;2023-05-01T13:18:48;12.20;86.30
32506;DHT22;18955;51.224;8.482;2023-05-01T13:21:19;12.20;86.30
32506;DHT22;18955;51.224;8.482;2023-05-01T13:23:57;12.20;86.40
32506;DHT22;18955;51.224;8.482;2023-05-01T13:26:29;12.30;86.30
32506;DHT22;18955;51.224;8.482;2023-05-01T13:28:57;12.30;86.70
32506;DHT22;18955;51.224;8.482;2023-05-01T13:31:25;12.30;86.60
32506;DHT22;18955;51.224;8.482;2023-05-01T13:33:52;12.30;86.60
32506;DHT22;18955;51.224;8.482;2023-05-01T13:36:19;12.40;86.70
32506;DHT22;18955;51.224;8.482;2023-05-01T13:38:49;12.40;87.30
32506;DHT22;18955;51.224;8.482;2023-05-01T13:41:19;12.40;86.80
32506;DHT22;18955;51.224;8.482;2023-05-01T13:43:50;12.40;86.70
32506;DHT22;18955;51.224;8.482;2023-05-01T13:46:18;12.50;86.80
32506;DHT22;18955;51.224;8.482;2023-05-01T13:48:46;12.50;87.00
32506;DHT22;18955;51.224;8.482;2023-05-01T13:51:14;12.50;86.90
32506;DHT22;18955;51.224;8.482;2023-05-01T13:53:45;12.50;86.90
32506;DHT22;18955;51.224;8.482;2023-05-01T13:56:11;12.50;87.00
32506;DHT22;18955;51.224;8.482;2023-05-01T13:58:40;12.50;87.10
32506;DHT22;18955;51.224;8.482;2023-05-01T14:01:14;12.60;87.30
32506;DHT22;18955;51.224;8.482;2023-05-01T14:03:41;12.60;87.30
32506;DHT22;18955;51.224;8.482;2023-05-01T14:06:11;12.60;87.30
32506;DHT22;18955;51.224;8.482;2023-05-01T14:08:38;12.60;87.40
32506;DHT22;18955;51.224;8.482;2023-05-01T14:11:05;12.60;87.30
32506;DHT22;18955;51.224;8.482;2023-05-01T14:13:31;12.60;87.30
32506;DHT22;18955;51.224;8.482;2023-05-01T14:15:58;12.70;87.50
32506;DHT22;18955;51.224;8.482;2023-05-01T14:18:25;12.70;87.40
32506;DHT22;18955;51.224;8.482;2023-05-01T14:20:51;12.80;87.50
32506;DHT22;18955;51.224;8.482;2023-05-01T14:23:17;12.80;87.40
32506;DHT22;18955;51.224;8.482;2023-05-01T14:25:47;12.80;87.40
32506;DHT22;18955;51.224;8.482;2023-05-01T14:28:14;12.80;87.30
32506;DHT22;18955;51.224;8.482;2023-05-01T14:30:40;12.80;87.40
32506;DHT22;18955;51.224;8.482;2023-05-01T14:33:11;12.80;87.30
32506;DHT22;18955;51.224;8.482;2023-05-01T14:35:50;12.80;87.20
32506;DHT22;18955;51.224;8.482;2023-05-01T14:38:18;12.90;87.20
32506;DHT22;18955;51.224;8.482;2023-05-01T14:40:45;12.90;87.30
32506;DHT22;18955;51.224;8.482;2023-05-01T14:43:15;12.90;87.30
32506;DHT22;18955;51.224;8.482;2023-05-01T14:45:42;12.90;87.40
32506;DHT22;18955;51.224;8.482;2023-05-01T14:48:34;12.90;87.30
32506;DHT22;18955;51.224;8.482;2023-05-01T14:51:09;12.90;87.40
32506;DHT22;18955;51.224;8.482;2023-05-01T14:53:38;13.00;87.40
32506;DHT22;18955;51.224;8.482;2023-05-01T14:56:04;13.00;87.50
32506;DHT22;18955;51.224;8.482;2023-05-01T14:58:31;13.00;87.40
32506;DHT22;18955;51.224;8.482;2023-05-01T15:00:57;13.10;87.20
32506;DHT22;18955;51.224;8.482;2023-05-01T15:03:23;13.10;87.20
32506;DHT22;18955;51.224;8.482;2023-05-01T15:05:49;13.10;87.40
32506;DHT22;18955;51.224;8.482;2023-05-01T15:08:15;13.10;87.30
32506;DHT22;18955;51.224;8.482;2023-05-01T15:10:42;13.10;87.30
32506;DHT22;18955;51.224;8.482;2023-05-01T15:13:09;13.10;87.20
32506;DHT22;18955;51.224;8.482;2023-05-01T15:15:35;13.10;87.10
32506;DHT22;18955;51.224;8.482;2023-05-01T15:18:02;13.10;87.30
32506;DHT22;18955;51.224;8.482;2023-05-01T15:20:29;13.20;87.30
32506;DHT22;18955;51.224;8.482;2023-05-01T15:22:55;13.20;87.40
32506;DHT22;18955;51.224;8.482;2023-05-01T15:25:21;13.20;87.30
32506;DHT22;18955;51.224;8.482;2023-05-01T15:27:48;13.20;87.40
32506;DHT22;18955;51.224;8.482;2023-05-01T15:30:15;13.20;87.60
32506;DHT22;18955;51.224;8.482;2023-05-01T15:32:41;13.20;87.60
32506;DHT22;18955;51.224;8.482;2023-05-01T15:35:07;13.20;87.60
32506;DHT22;18955;51.224;8.482;2023-05-01T15:37:34;13.20;87.50
32506;DHT22;18955;51.224;8.482;2023-05-01T15:40:00;13.30;87.50
32506;DHT22;18955;51.224;8.482;2023-05-01T15:42:26;13.30;87.70
32506;DHT22;18955;51.224;8.482;2023-05-01T15:44:53;13.30;87.60
32506;DHT22;18955;51.224;8.482;2023-05-01T15:47:19;13.30;87.60
32506;DHT22;18955;51.224;8.482;2023-05-01T15:49:45;13.30;87.70
32506;DHT22;18955;51.224;8.482;2023-05-01T15:52:11;13.30;87.70
32506;DHT22;18955;51.224;8.482;2023-05-01T15:54:38;13.30;87.70
32506;DHT22;18955;51.224;8.482;2023-05-01T15:57:04;13.30;87.70
32506;DHT22;18955;51.224;8.482;2023-05-01T15:59:32;13.30;87.80
32506;DHT22;18955;51.224;8.482;2023-05-01T16:01:58;13.30;87.80
32506;DHT22;18955;51.224;8.482;2023-05-01T16:04:25;13.30;87.70
32506;DHT22;18955;51.224;8.482;2023-05-01T16:06:51;13.40;87.90
32506;DHT22;18955;51.224;8.482;2023-05-01T16:09:17;13.40;87.90
32506;DHT22;18955;51.224;8.482;2023-05-01T16:11:44;13.40;87.90
32506;DHT22;18955;51.224;8.482;2023-05-01T16:14:10;13.40;87.90
32506;DHT22;18955;51.224;8.482;2023-05-01T16:16:40;13.40;87.90
32506;DHT22;18955;51.224;8.482;2023-05-01T16:19:06;13.40;87.90
32506;DHT22;18955;51.224;8.482;2023-05-01T16:21:33;13.40;87.80
32506;DHT22;18955;51.224;8.482;2023-05-01T16:24:00;13.40;87.80
32506;DHT22;18955;51.224;8.482;2023-05-01T16:26:28;13.40;87.90
32506;DHT22;18955;51.224;8.482;2023-05-01T16:28:58;13.40;87.80
32506;DHT22;18955;51.224;8.482;2023-05-01T16:31:25;13.50;88.00
32506;DHT22;18955;51.224;8.482;2023-05-01T16:33:51;13.50;88.00
32506;DHT22;18955;51.224;8.482;2023-05-01T16:36:19;13.40;88.00
32506;DHT22;18955;51.224;8.482;2023-05-01T16:38:46;13.50;88.10
32506;DHT22;18955;51.224;8.482;2023-05-01T16:41:16;13.50;88.20
32506;DHT22;18955;51.224;8.482;2023-05-01T16:43:45;13.50;88.20
32506;DHT22;18955;51.224;8.482;2023-05-01T16:46:14;13.50;88.20